sensor_id;sensor_type;location;lat;lon;timestamp;pressure;altitude;pressure_sealevel;temperature;humidity
5814;BME280;2933;52.302;8.134;2024-01-06T00:04:59;76540.78;;;-148.04;100.00
5814;BME280;2933;52.302;8.134;2024-01-06T00:10:03;76538.81;;;-148.04;100.00
5814;BME280;2933;52.302;8.134;2024-01-06T00:15:06;76554.72;;;-148.04;100.00
5814;BME280;2933;52.302;8.134;2024-01-06T00:20:08;76560.66;;;-148.04;100.00
5814;BME280;2933;52.302;8.134;2024-01-06T00:25:11;76560.66;;;-148.04;100.00
5814;BME280;2933;52.302;8.134;2024-01-06T00:30:14;76556.69;;;-148.04;100.00
5814;BME280;2933;52.302;8.134;2024-01-06T00:35:15;76570.59;;;-148.04;100.00
5814;BME280;2933;52.302;8.134;2024-01-06T00:40:18;76572.59;;;-148.04;100.00
5814;BME280;2933;52.302;8.134;2024-01-06T00:45:20;76576.56;;;-148.04;100.00
5814;BME280;2933;52.302;8.134;2024-01-06T00:50:23;76584.53;;;-148.04;100.00
5814;BME280;2933;52.302;8.134;2024-01-06T00:55:26;76594.47;;;-148.04;100.00
5814;BME280;2933;52.302;8.134;2024-01-06T01:00:27;76602.41;;;-148.04;100.00
5814;BME280;2933;52.302;8.134;2024-01-06T01:05:29;76604.41;;;-148.04;100.00
5814;BME280;2933;52.302;8.134;2024-01-06T01:10:32;76598.44;;;-148.04;100.00
5814;BME280;2933;52.302;8.134;2024-01-06T01:15:34;76606.41;;;-148.04;100.00
5814;BME280;2933;52.302;8.134;2024-01-06T01:20:35;76616.34;;;-148.04;100.00
5814;BME280;2933;52.302;8.134;2024-01-06T01:25:39;76640.19;;;-148.04;100.00
5814;BME280;2933;52.302;8.134;2024-01-06T01:30:40;76652.13;;;-148.04;100.00
5814;BME280;2933;52.302;8.134;2024-01-06T01:35:42;76660.06;;;-148.04;100.00
5814;BME280;2933;52.302;8.134;2024-01-06T01:40:45;76656.09;;;-148.04;100.00
5814;BME280;2933;52.302;8.134;2024-01-06T01:45:50;76672.00;;;-148.04;100.00
5814;BME280;2933;52.302;8.134;2024-01-06T01:50:53;76681.94;;;-148.04;100.00
5814;BME280;2933;52.302;8.134;2024-01-06T01:55:56;76681.94;;;-148.04;100.00
5814;BME280;2933;52.302;8.134;2024-01-06T02:00:59;76681.94;;;-148.04;100.00
5814;BME280;2933;52.302;8.134;2024-01-06T02:06:00;76689.88;;;-148.04;100.00
5814;BME280;2933;52.302;8.134;2024-01-06T02:11:04;76699.81;;;-148.04;100.00
5814;BME280;2933;52.302;8.134;2024-01-06T02:16:06;76717.72;;;-148.04;100.00
5814;BME280;2933;52.302;8.134;2024-01-06T02:21:08;76709.78;;;-148.04;100.00
5814;BME280;2933;52.302;8.134;2024-01-06T02:26:12;76733.63;;;-148.04;100.00
5814;BME280;2933;52.302;8.134;2024-01-06T02:31:15;76745.56;;;-148.04;100.00
5814;BME280;2933;52.302;8.134;2024-01-06T02:36:16;76747.53;;;-148.04;100.00
5814;BME280;2933;52.302;8.134;2024-01-06T02:41:19;76773.38;;;-148.04;100.00
5814;BME280;2933;52.302;8.134;2024-01-06T02:46:21;76771.41;;;-148.04;100.00
5814;BME280;2933;52.302;8.134;2024-01-06T02:51:23;76779.34;;;-148.04;100.00
5814;BME280;2933;52.302;8.134;2024-01-06T02:56:26;76793.28;;;-148.04;100.00
5814;BME280;2933;52.302;8.134;2024-01-06T03:01:27;76807.19;;;-148.04;100.00
5814;BME280;2933;52.302;8.134;2024-01-06T03:06:29;76827.06;;;-148.04;100.00
5814;BME280;2933;52.302;8.134;2024-01-06T03:11:32;76840.97;;;-148.04;100.00
5814;BME280;2933;52.302;8.134;2024-01-06T03:16:34;76844.97;;;-148.04;100.00
5814;BME280;2933;52.302;8.134;2024-01-06T03:21:35;76844.97;;;-148.04;100.00
5814;BME280;2933;52.302;8.134;2024-01-06T03:26:38;76860.88;;;-148.04;100.00
5814;BME280;2933;52.302;8.134;2024-01-06T03:31:42;76868.81;;;-148.04;100.00
5814;BME280;2933;52.302;8.134;2024-01-06T03:36:44;76860.88;;;-148.04;100.00
5814;BME280;2933;52.302;8.134;2024-01-06T03:41:49;76874.78;;;-148.04;100.00
5814;BME280;2933;52.302;8.134;2024-01-06T03:46:50;76898.63;;;-148.04;100.00
5814;BME280;2933;52.302;8.134;2024-01-06T03:51:52;76924.47;;;-148.04;100.00
5814;BME280;2933;52.302;8.134;2024-01-06T03:56:55;76916.53;;;-148.04;100.00
5814;BME280;2933;52.302;8.134;2024-01-06T04:01:57;76932.44;;;-148.04;100.00
5814;BME280;2933;52.302;8.134;2024-01-06T04:06:59;76930.44;;;-148.04;100.00
5814;BME280;2933;52.302;8.134;2024-01-06T04:12:03;76946.34;;;-148.04;100.00
5814;BME280;2933;52.302;8.134;2024-01-06T04:17:05;76932.44;;;-148.04;100.00
5814;BME280;2933;52.302;8.134;2024-01-06T04:22:06;76962.25;;;-148.04;100.00
5814;BME280;2933;52.302;8.134;2024-01-06T04:27:09;76964.25;;;-148.04;100.00
5814;BME280;2933;52.302;8.134;2024-01-06T04:32:11;77002.03;;;-148.04;100.00
5814;BME280;2933;52.302;8.134;2024-01-06T04:37:13;77011.97;;;-148.04;100.00
5814;BME280;2933;52.302;8.134;2024-01-06T04:42:16;77045.75;;;-148.04;100.00
5814;BME280;2933;52.302;8.134;2024-01-06T04:47:19;77037.81;;;-148.04;100.00
5814;BME280;2933;52.302;8.134;2024-01-06T04:52:21;77025.88;;;-148.04;100.00
5814;BME280;2933;52.302;8.134;2024-01-06T04:57:24;77051.72;;;-148.04;100.00
5814;BME280;2933;52.302;8.134;2024-01-06T05:02:26;77071.59;;;-148.04;100.00
5814;BME280;2933;52.302;8.134;2024-01-06T05:07:28;77055.69;;;-148.04;100.00
5814;BME280;2933;52.302;8.134;2024-01-06T05:12:31;77083.53;;;-148.04;100.00
5814;BME280;2933;52.302;8.134;2024-01-06T05:17:32;77095.47;;;-148.04;100.00
5814;BME280;2933;52.302;8.134;2024-01-06T05:22:34;77087.50;;;-148.04;100.00
5814;BME280;2933;52.302;8.134;2024-01-06T05:27:37;77081.56;;;-148.04;100.00
5814;BME280;2933;52.302;8.134;2024-01-06T05:32:39;77099.44;;;-148.04;100.00
5814;BME280;2933;52.302;8.134;2024-01-06T05:37:40;77097.47;;;-148.04;100.00
5814;BME280;2933;52.302;8.134;2024-01-06T05:42:43;77121.31;;;-148.04;100.00
5814;BME280;2933;52.302;8.134;2024-01-06T05:47:45;77123.31;;;-148.04;100.00
5814;BME280;2933;52.302;8.134;2024-01-06T05:52:46;77137.22;;;-148.04;100.00
5814;BME280;2933;52.302;8.134;2024-01-06T05:57:50;77147.16;;;-148.04;100.00
5814;BME280;2933;52.302;8.134;2024-01-06T06:02:52;77153.13;;;-148.04;100.00
5814;BME280;2933;52.302;8.134;2024-01-06T06:07:53;77165.06;;;-148.04;100.00
5814;BME280;2933;52.302;8.134;2024-01-06T06:12:56;77157.09;;;-148.04;100.00
5814;BME280;2933;52.302;8.134;2024-01-06T06:17:58;77184.94;;;-148.04;100.00
5814;BME280;2933;52.302;8.134;2024-01-06T06:23:01;77173.00;;;-148.04;100.00
5814;BME280;2933;52.302;8.134;2024-01-06T06:28:04;77194.88;;;-148.04;100.00
5814;BME280;2933;52.302;8.134;2024-01-06T06:33:06;77196.88;;;-148.04;100.00
5814;BME280;2933;52.302;8.134;2024-01-06T06:38:08;77212.78;;;-148.04;100.00
5814;BME280;2933;52.302;8.134;2024-01-06T06:43:13;77208.78;;;-148.04;100.00
5814;BME280;2933;52.302;8.134;2024-01-06T06:48:15;77216.75;;;-148.04;100.00
5814;BME280;2933;52.302;8.134;2024-01-06T06:53:17;77236.63;;;-148.04;100.00
5814;BME280;2933;52.302;8.134;2024-01-06T06:58:20;77238.63;;;-148.04;100.00
5814;BME280;2933;52.302;8.134;2024-01-06T07:03:21;77236.63;;;-148.04;100.00
5814;BME280;2933;52.302;8.134;2024-01-06T07:08:23;77258.50;;;-148.04;100.00
5814;BME280;2933;52.302;8.134;2024-01-06T07:13:26;77266.47;;;-148.04;100.00
5814;BME280;2933;52.302;8.134;2024-01-06T07:18:27;77260.50;;;-148.04;100.00
5814;BME280;2933;52.302;8.134;2024-01-06T07:23:29;77274.41;;;-148.04;100.00
5814;BME280;2933;52.302;8.134;2024-01-06T07:28:32;77274.41;;;-148.04;100.00
5814;BME280;2933;52.302;8.134;2024-01-06T07:33:33;77280.38;;;-148.04;100.00
5814;BME280;2933;52.302;8.134;2024-01-06T07:38:35;77288.31;;;-148.04;100.00
5814;BME280;2933;52.302;8.134;2024-01-06T07:43:38;77306.22;;;-148.04;100.00
5814;BME280;2933;52.302;8.134;2024-01-06T07:48:40;77330.09;;;-148.04;100.00
5814;BME280;2933;52.302;8.134;2024-01-06T07:53:41;77332.06;;;-148.04;100.00
5814;BME280;2933;52.302;8.134;2024-01-06T07:58:44;77326.09;;;-148.04;100.00
5814;BME280;2933;52.302;8.134;2024-01-06T08:03:46;77324.13;;;-148.04;100.00
5814;BME280;2933;52.302;8.134;2024-01-06T08:08:48;77322.13;;;-148.04;100.00
5814;BME280;2933;52.302;8.134;2024-01-06T08:13:51;77336.03;;;-148.04;100.00
5814;BME280;2933;52.302;8.134;2024-01-06T08:18:52;77346.00;;;-148.04;100.00
5814;BME280;2933;52.302;8.134;2024-01-06T08:23:54;77346.00;;;-148.04;100.00
5814;BME280;2933;52.302;8.134;2024-01-06T08:28:57;77359.91;;;-148.04;100.00
5814;BME280;2933;52.302;8.134;2024-01-06T08:33:59;77383.78;;;-148.04;100.00
5814;BME280;2933;52.302;8.134;2024-01-06T08:39:00;77385.75;;;-148.04;100.00
5814;BME280;2933;52.302;8.134;2024-01-06T08:44:04;77401.66;;;-148.04;100.00
5814;BME280;2933;52.302;8.134;2024-01-06T08:49:05;77409.63;;;-148.04;100.00
5814;BME280;2933;52.302;8.134;2024-01-06T08:54:07;77425.53;;;-148.04;100.00
5814;BME280;2933;52.302;8.134;2024-01-06T08:59:10;77427.50;;;-148.04;100.00
5814;BME280;2933;52.302;8.134;2024-01-06T09:04:12;77449.38;;;-148.04;100.00
5814;BME280;2933;52.302;8.134;2024-01-06T09:09:13;77445.41;;;-148.04;100.00
5814;BME280;2933;52.302;8.134;2024-01-06T09:14:18;77451.38;;;-148.04;100.00
5814;BME280;2933;52.302;8.134;2024-01-06T09:19:19;77461.31;;;-148.04;100.00
5814;BME280;2933;52.302;8.134;2024-01-06T09:24:22;77471.25;;;-148.04;100.00
5814;BME280;2933;52.302;8.134;2024-01-06T09:29:25;77475.22;;;-148.04;100.00
5814;BME280;2933;52.302;8.134;2024-01-06T09:34:27;77499.09;;;-148.04;100.00
5814;BME280;2933;52.302;8.134;2024-01-06T09:39:28;77493.13;;;-148.04;100.00
5814;BME280;2933;52.302;8.134;2024-01-06T09:44:32;77489.16;;;-148.04;100.00
5814;BME280;2933;52.302;8.134;2024-01-06T09:49:38;77497.09;;;-148.04;100.00
5814;BME280;2933;52.302;8.134;2024-01-06T09:54:41;77485.19;;;-148.04;100.00
5814;BME280;2933;52.302;8.134;2024-01-06T09:59:49;77497.09;;;-148.04;100.00
5814;BME280;2933;52.302;8.134;2024-01-06T10:04:51;77497.09;;;-148.04;100.00
5814;BME280;2933;52.302;8.134;2024-01-06T10:09:54;77509.03;;;-148.04;100.00
5814;BME280;2933;52.302;8.134;2024-01-06T10:14:58;77509.03;;;-148.04;100.00
5814;BME280;2933;52.302;8.134;2024-01-06T10:19:59;77501.09;;;-148.04;100.00
5814;BME280;2933;52.302;8.134;2024-01-06T10:25:01;77509.03;;;-148.04;100.00
5814;BME280;2933;52.302;8.134;2024-01-06T10:30:06;77522.97;;;-148.04;100.00
5814;BME280;2933;52.302;8.134;2024-01-06T10:35:08;77509.03;;;-148.04;100.00
5814;BME280;2933;52.302;8.134;2024-01-06T10:40:11;77526.94;;;-148.04;100.00
5814;BME280;2933;52.302;8.134;2024-01-06T10:45:14;77509.03;;;-148.04;100.00
5814;BME280;2933;52.302;8.134;2024-01-06T10:50:17;77511.03;;;-148.04;100.00
5814;BME280;2933;52.302;8.134;2024-01-06T10:55:19;77511.03;;;-148.04;100.00
5814;BME280;2933;52.302;8.134;2024-01-06T11:00:23;77515.00;;;-148.04;100.00
5814;BME280;2933;52.302;8.134;2024-01-06T11:05:25;77491.13;;;-148.04;100.00
5814;BME280;2933;52.302;8.134;2024-01-06T11:10:27;77491.13;;;-148.04;100.00
5814;BME280;2933;52.302;8.134;2024-01-06T11:15:42;77499.09;;;-148.04;100.00
5814;BME280;2933;52.302;8.134;2024-01-06T11:26:30;77524.94;;;-148.04;100.00
5814;BME280;2933;52.302;8.134;2024-01-06T11:31:33;77509.03;;;-148.04;100.00
5814;BME280;2933;52.302;8.134;2024-01-06T11:36:36;77501.09;;;-148.04;100.00
5814;BME280;2933;52.302;8.134;2024-01-06T11:41:51;77520.97;;;-148.04;100.00
5814;BME280;2933;52.302;8.134;2024-01-06T11:46:56;77511.03;;;-148.04;100.00
5814;BME280;2933;52.302;8.134;2024-01-06T11:51:58;77505.06;;;-148.04;100.00
5814;BME280;2933;52.302;8.134;2024-01-06T11:57:00;77501.09;;;-148.04;100.00
5814;BME280;2933;52.302;8.134;2024-01-06T12:02:03;77515.00;;;-148.04;100.00
5814;BME280;2933;52.302;8.134;2024-01-06T12:07:06;77534.88;;;-148.04;100.00
5814;BME280;2933;52.302;8.134;2024-01-06T12:12:08;77536.88;;;-148.04;100.00
5814;BME280;2933;52.302;8.134;2024-01-06T12:17:12;77552.78;;;-148.04;100.00
5814;BME280;2933;52.302;8.134;2024-01-06T12:22:15;77544.84;;;-148.04;100.00
5814;BME280;2933;52.302;8.134;2024-01-06T12:27:17;77546.81;;;-148.04;100.00
5814;BME280;2933;52.302;8.134;2024-01-06T12:32:23;77568.69;;;-148.04;100.00
5814;BME280;2933;52.302;8.134;2024-01-06T12:37:25;77558.75;;;-148.04;100.00
5814;BME280;2933;52.302;8.134;2024-01-06T12:42:27;77568.69;;;-148.04;100.00
5814;BME280;2933;52.302;8.134;2024-01-06T12:47:30;77582.59;;;-148.04;100.00
5814;BME280;2933;52.302;8.134;2024-01-06T12:52:32;77586.59;;;-148.04;100.00
5814;BME280;2933;52.302;8.134;2024-01-06T12:57:34;77586.59;;;-148.04;100.00
5814;BME280;2933;52.302;8.134;2024-01-06T13:02:37;77586.59;;;-148.04;100.00
5814;BME280;2933;52.302;8.134;2024-01-06T13:07:39;77592.56;;;-148.04;100.00
5814;BME280;2933;52.302;8.134;2024-01-06T13:12:41;77594.53;;;-148.04;100.00
5814;BME280;2933;52.302;8.134;2024-01-06T13:17:44;77600.50;;;-148.04;100.00
5814;BME280;2933;52.302;8.134;2024-01-06T13:22:46;77608.47;;;-148.04;100.00
5814;BME280;2933;52.302;8.134;2024-01-06T13:27:48;77612.44;;;-148.04;100.00
5814;BME280;2933;52.302;8.134;2024-01-06T13:32:52;77616.41;;;-148.04;100.00
5814;BME280;2933;52.302;8.134;2024-01-06T13:37:54;77622.38;;;-148.04;100.00
5814;BME280;2933;52.302;8.134;2024-01-06T13:42:58;77638.28;;;-148.04;100.00
5814;BME280;2933;52.302;8.134;2024-01-06T13:48:01;77640.28;;;-148.04;100.00
5814;BME280;2933;52.302;8.134;2024-01-06T13:53:04;77656.19;;;-148.04;100.00
5814;BME280;2933;52.302;8.134;2024-01-06T13:58:06;77656.19;;;-148.04;100.00
5814;BME280;2933;52.302;8.134;2024-01-06T14:03:11;77644.25;;;-148.04;100.00
5814;BME280;2933;52.302;8.134;2024-01-06T14:08:13;77662.16;;;-148.04;100.00
5814;BME280;2933;52.302;8.134;2024-01-06T14:13:15;77676.06;;;-148.04;100.00
5814;BME280;2933;52.302;8.134;2024-01-06T14:18:18;77676.06;;;-148.04;100.00
5814;BME280;2933;52.302;8.134;2024-01-06T14:23:20;77688.00;;;-148.04;100.00
5814;BME280;2933;52.302;8.134;2024-01-06T14:28:21;77693.97;;;-148.04;100.00
5814;BME280;2933;52.302;8.134;2024-01-06T14:33:24;77715.84;;;-148.04;100.00
5814;BME280;2933;52.302;8.134;2024-01-06T14:38:27;77719.81;;;-148.04;100.00
5814;BME280;2933;52.302;8.134;2024-01-06T14:43:29;77741.69;;;-148.04;100.00
5814;BME280;2933;52.302;8.134;2024-01-06T14:48:32;77745.66;;;-148.04;100.00
5814;BME280;2933;52.302;8.134;2024-01-06T14:53:33;77757.59;;;-148.04;100.00
5814;BME280;2933;52.302;8.134;2024-01-06T14:58:35;77753.63;;;-148.04;100.00
5814;BME280;2933;52.302;8.134;2024-01-06T15:03:38;77775.50;;;-148.04;100.00
5814;BME280;2933;52.302;8.134;2024-01-06T15:08:40;77791.41;;;-148.04;100.00
5814;BME280;2933;52.302;8.134;2024-01-06T15:13:41;77791.41;;;-148.04;100.00
5814;BME280;2933;52.302;8.134;2024-01-06T15:18:46;77811.28;;;-148.04;100.00
5814;BME280;2933;52.302;8.134;2024-01-06T15:23:50;77795.38;;;-148.04;100.00
5814;BME280;2933;52.302;8.134;2024-01-06T15:28:51;77801.34;;;-148.04;100.00
5814;BME280;2933;52.302;8.134;2024-01-06T15:33:55;77795.38;;;-148.04;100.00
5814;BME280;2933;52.302;8.134;2024-01-06T15:38:56;77791.41;;;-148.04;100.00
5814;BME280;2933;52.302;8.134;2024-01-06T15:43:58;77825.22;;;-148.04;100.00
5814;BME280;2933;52.302;8.134;2024-01-06T15:49:02;77821.22;;;-148.04;100.00
5814;BME280;2933;52.302;8.134;2024-01-06T15:54:04;77819.25;;;-148.04;100.00
5814;BME280;2933;52.302;8.134;2024-01-06T15:59:06;77807.31;;;-148.04;100.00
5814;BME280;2933;52.302;8.134;2024-01-06T16:04:09;77841.13;;;-148.04;100.00
5814;BME280;2933;52.302;8.134;2024-01-06T16:09:11;77866.97;;;-148.04;100.00
5814;BME280;2933;52.302;8.134;2024-01-06T16:14:12;77894.81;;;-148.04;100.00
5814;BME280;2933;52.302;8.134;2024-01-06T16:19:15;77876.91;;;-148.04;100.00
5814;BME280;2933;52.302;8.134;2024-01-06T16:24:18;77878.91;;;-148.04;100.00
5814;BME280;2933;52.302;8.134;2024-01-06T16:29:20;77870.94;;;-148.04;100.00
5814;BME280;2933;52.302;8.134;2024-01-06T16:34:23;77886.84;;;-148.04;100.00
5814;BME280;2933;52.302;8.134;2024-01-06T16:39:25;77894.81;;;-148.04;100.00
5814;BME280;2933;52.302;8.134;2024-01-06T16:44:29;77876.91;;;-148.04;100.00
5814;BME280;2933;52.302;8.134;2024-01-06T16:49:32;77890.84;;;-148.04;100.00
5814;BME280;2933;52.302;8.134;2024-01-06T16:54:34;77906.75;;;-148.04;100.00
5814;BME280;2933;52.302;8.134;2024-01-06T16:59:36;77906.75;;;-148.04;100.00
5814;BME280;2933;52.302;8.134;2024-01-06T17:04:39;77918.69;;;-148.04;100.00
5814;BME280;2933;52.302;8.134;2024-01-06T17:09:40;77952.47;;;-148.04;100.00
5814;BME280;2933;52.302;8.134;2024-01-06T17:14:44;77954.47;;;-148.04;100.00
5814;BME280;2933;52.302;8.134;2024-01-06T17:19:48;77950.50;;;-148.04;100.00
5814;BME280;2933;52.302;8.134;2024-01-06T17:24:49;77956.47;;;-148.04;100.00
5814;BME280;2933;52.302;8.134;2024-01-06T17:29:51;77972.38;;;-148.04;100.00
5814;BME280;2933;52.302;8.134;2024-01-06T17:34:54;77952.47;;;-148.04;100.00
5814;BME280;2933;52.302;8.134;2024-01-06T17:39:55;77932.59;;;-148.04;100.00
5814;BME280;2933;52.302;8.134;2024-01-06T17:44:57;77956.47;;;-148.04;100.00
5814;BME280;2933;52.302;8.134;2024-01-06T17:50:00;77972.38;;;-148.04;100.00
5814;BME280;2933;52.302;8.134;2024-01-06T17:55:02;77968.41;;;-148.04;100.00
5814;BME280;2933;52.302;8.134;2024-01-06T18:00:05;77984.31;;;-148.04;100.00
5814;BME280;2933;52.302;8.134;2024-01-06T18:05:10;77994.25;;;-148.04;100.00
5814;BME280;2933;52.302;8.134;2024-01-06T18:10:12;78020.09;;;-148.04;100.00
5814;BME280;2933;52.302;8.134;2024-01-06T18:15:15;78018.09;;;-148.04;100.00
5814;BME280;2933;52.302;8.134;2024-01-06T18:20:18;78024.06;;;-148.04;100.00
5814;BME280;2933;52.302;8.134;2024-01-06T18:25:21;78039.97;;;-148.04;100.00
5814;BME280;2933;52.302;8.134;2024-01-06T18:30:23;78053.91;;;-148.04;100.00
5814;BME280;2933;52.302;8.134;2024-01-06T18:35:26;78055.91;;;-148.04;100.00
5814;BME280;2933;52.302;8.134;2024-01-06T18:40:29;78061.84;;;-148.04;100.00
5814;BME280;2933;52.302;8.134;2024-01-06T18:45:30;78065.84;;;-148.04;100.00
5814;BME280;2933;52.302;8.134;2024-01-06T18:50:33;78087.72;;;-148.04;100.00
5814;BME280;2933;52.302;8.134;2024-01-06T18:55:35;78095.66;;;-148.04;100.00
5814;BME280;2933;52.302;8.134;2024-01-06T19:00:37;78091.69;;;-148.04;100.00
5814;BME280;2933;52.302;8.134;2024-01-06T19:05:40;78109.59;;;-148.04;100.00
5814;BME280;2933;52.302;8.134;2024-01-06T19:10:42;78109.59;;;-148.04;100.00
5814;BME280;2933;52.302;8.134;2024-01-06T19:15:43;78115.56;;;-148.04;100.00
5814;BME280;2933;52.302;8.134;2024-01-06T19:20:47;78131.47;;;-148.04;100.00
5814;BME280;2933;52.302;8.134;2024-01-06T19:25:48;78149.38;;;-148.04;100.00
5814;BME280;2933;52.302;8.134;2024-01-06T19:30:52;78143.41;;;-148.04;100.00
5814;BME280;2933;52.302;8.134;2024-01-06T19:35:56;78127.50;;;-148.04;100.00
5814;BME280;2933;52.302;8.134;2024-01-06T19:40:58;78137.44;;;-148.04;100.00
5814;BME280;2933;52.302;8.134;2024-01-06T19:46:01;78149.38;;;-148.04;100.00
5814;BME280;2933;52.302;8.134;2024-01-06T19:51:04;78141.41;;;-148.04;100.00
5814;BME280;2933;52.302;8.134;2024-01-06T19:56:12;78141.41;;;-148.04;100.00
5814;BME280;2933;52.302;8.134;2024-01-06T20:01:14;78161.28;;;-148.04;100.00
5814;BME280;2933;52.302;8.134;2024-01-06T20:06:17;78147.38;;;-148.04;100.00
5814;BME280;2933;52.302;8.134;2024-01-06T20:11:19;78189.13;;;-148.04;100.00
5814;BME280;2933;52.302;8.134;2024-01-06T20:16:21;78195.09;;;-148.04;100.00
5814;BME280;2933;52.302;8.134;2024-01-06T20:21:24;78189.13;;;-148.04;100.00
5814;BME280;2933;52.302;8.134;2024-01-06T20:26:26;78201.06;;;-148.04;100.00
5814;BME280;2933;52.302;8.134;2024-01-06T20:31:29;78189.13;;;-148.04;100.00
5814;BME280;2933;52.302;8.134;2024-01-06T20:36:32;78193.13;;;-148.04;100.00
5814;BME280;2933;52.302;8.134;2024-01-06T20:41:33;78191.13;;;-148.04;100.00
5814;BME280;2933;52.302;8.134;2024-01-06T20:46:35;78173.22;;;-148.04;100.00
5814;BME280;2933;52.302;8.134;2024-01-06T20:51:40;78173.22;;;-148.04;100.00
5814;BME280;2933;52.302;8.134;2024-01-06T20:56:42;78201.06;;;-148.04;100.00
5814;BME280;2933;52.302;8.134;2024-01-06T21:01:43;78207.03;;;-148.04;100.00
5814;BME280;2933;52.302;8.134;2024-01-06T21:06:46;78209.03;;;-148.04;100.00
5814;BME280;2933;52.302;8.134;2024-01-06T21:11:48;78209.03;;;-148.04;100.00
5814;BME280;2933;52.302;8.134;2024-01-06T21:16:50;78209.03;;;-148.04;100.00
5814;BME280;2933;52.302;8.134;2024-01-06T21:21:53;78213.00;;;-148.04;100.00
5814;BME280;2933;52.302;8.134;2024-01-06T21:26:55;78218.97;;;-148.04;100.00
5814;BME280;2933;52.302;8.134;2024-01-06T21:31:56;78242.84;;;-148.04;100.00
5814;BME280;2933;52.302;8.134;2024-01-06T21:36:59;78244.81;;;-148.04;100.00
5814;BME280;2933;52.302;8.134;2024-01-06T21:42:01;78234.88;;;-148.04;100.00
5814;BME280;2933;52.302;8.134;2024-01-06T21:47:03;78230.91;;;-148.04;100.00
5814;BME280;2933;52.302;8.134;2024-01-06T21:52:06;78264.72;;;-148.04;100.00
5814;BME280;2933;52.302;8.134;2024-01-06T21:57:08;78264.72;;;-148.04;100.00
5814;BME280;2933;52.302;8.134;2024-01-06T22:02:10;78298.53;;;-148.04;100.00
5814;BME280;2933;52.302;8.134;2024-01-06T22:07:13;78288.56;;;-148.04;100.00
5814;BME280;2933;52.302;8.134;2024-01-06T22:12:14;78294.53;;;-148.04;100.00
5814;BME280;2933;52.302;8.134;2024-01-06T22:17:16;78298.53;;;-148.04;100.00
5814;BME280;2933;52.302;8.134;2024-01-06T22:22:19;78290.56;;;-148.04;100.00
5814;BME280;2933;52.302;8.134;2024-01-06T22:27:21;78290.56;;;-148.04;100.00
5814;BME280;2933;52.302;8.134;2024-01-06T22:32:23;78304.50;;;-148.04;100.00
5814;BME280;2933;52.302;8.134;2024-01-06T22:37:28;78304.50;;;-148.04;100.00
5814;BME280;2933;52.302;8.134;2024-01-06T22:42:29;78306.47;;;-148.04;100.00
5814;BME280;2933;52.302;8.134;2024-01-06T22:47:31;78320.41;;;-148.04;100.00
5814;BME280;2933;52.302;8.134;2024-01-06T22:52:34;78318.41;;;-148.04;100.00
5814;BME280;2933;52.302;8.134;2024-01-06T22:57:36;78332.34;;;-148.04;100.00
5814;BME280;2933;52.302;8.134;2024-01-06T23:02:38;78350.22;;;-148.04;100.00
5814;BME280;2933;52.302;8.134;2024-01-06T23:07:41;78360.19;;;-148.04;100.00
5814;BME280;2933;52.302;8.134;2024-01-06T23:12:42;78382.06;;;-148.04;100.00
5814;BME280;2933;52.302;8.134;2024-01-06T23:17:44;78388.03;;;-148.04;100.00
5814;BME280;2933;52.302;8.134;2024-01-06T23:22:48;78384.03;;;-148.04;100.00
5814;BME280;2933;52.302;8.134;2024-01-06T23:27:50;78397.97;;;-148.04;100.00
5814;BME280;2933;52.302;8.134;2024-01-06T23:32:51;78401.94;;;-148.04;100.00
5814;BME280;2933;52.302;8.134;2024-01-06T23:37:54;78395.97;;;-148.04;100.00
5814;BME280;2933;52.302;8.134;2024-01-06T23:42:56;78401.94;;;-148.04;100.00
5814;BME280;2933;52.302;8.134;2024-01-06T23:47:58;78407.91;;;-148.04;100.00
5814;BME280;2933;52.302;8.134;2024-01-06T23:53:01;78403.94;;;-148.04;100.00
5814;BME280;2933;52.302;8.134;2024-01-06T23:58:03;78425.81;;;-148.04;100.00
